createdAt,value
2019-05-11T00:00:12.221Z,9.20
2019-05-11T00:02:38.912Z,9.14
2019-05-11T00:05:05.911Z,9.11
2019-05-11T00:07:32.804Z,9.23
2019-05-11T00:09:59.599Z,9.15
2019-05-11T00:12:26.373Z,9.17
2019-05-11T00:14:53.048Z,9.33
2019-05-11T00:17:19.866Z,9.27
2019-05-11T00:19:46.549Z,9.22
2019-05-11T00:22:13.330Z,9.28
2019-05-11T00:24:40.214Z,9.27
2019-05-11T00:29:38.880Z,9.07
2019-05-11T00:32:05.671Z,8.94
2019-05-11T00:34:32.476Z,8.92
2019-05-11T00:36:59.044Z,8.90
2019-05-11T00:39:25.769Z,8.89
2019-05-11T00:41:52.359Z,8.84
2019-05-11T00:44:19.145Z,8.85
2019-05-11T00:46:46.018Z,8.89
2019-05-11T00:49:12.872Z,8.86
2019-05-11T00:51:39.655Z,8.88
2019-05-11T00:54:06.460Z,8.83
2019-05-11T00:56:33.335Z,8.80
2019-05-11T00:59:00.126Z,8.83
2019-05-11T01:01:26.933Z,8.79
2019-05-11T01:03:53.727Z,8.76
2019-05-11T01:06:20.524Z,8.75
2019-05-11T01:08:47.270Z,8.80
2019-05-11T01:11:14.036Z,8.84
2019-05-11T01:13:40.795Z,8.83
2019-05-11T01:16:07.473Z,8.89
2019-05-11T01:18:34.184Z,8.86
2019-05-11T01:21:00.857Z,8.78
2019-05-11T01:23:27.819Z,8.78
2019-05-11T01:25:54.585Z,8.78
2019-05-11T01:28:21.294Z,8.98
2019-05-11T01:30:48.056Z,8.97
2019-05-11T01:33:14.870Z,8.90
2019-05-11T01:35:41.630Z,8.85
2019-05-11T01:38:08.395Z,8.84
2019-05-11T01:40:35.104Z,8.82
2019-05-11T01:43:01.887Z,8.81
2019-05-11T01:45:28.567Z,9.05
2019-05-11T01:47:55.291Z,9.01
2019-05-11T01:50:21.983Z,8.91
2019-05-11T01:52:48.646Z,8.86
2019-05-11T01:55:15.336Z,8.80
2019-05-11T01:57:41.994Z,8.87
2019-05-11T02:00:08.978Z,8.87
2019-05-11T02:02:35.655Z,8.79
2019-05-11T02:05:20.468Z,8.82
2019-05-11T02:07:48.775Z,8.77
2019-05-11T02:10:15.550Z,8.69
2019-05-11T02:12:42.154Z,8.72
2019-05-11T02:15:08.851Z,8.68
2019-05-11T02:17:35.559Z,8.68
2019-05-11T02:20:02.349Z,8.66
2019-05-11T02:22:29.156Z,8.61
2019-05-11T02:24:55.845Z,8.70
2019-05-11T02:27:22.676Z,8.76
2019-05-11T02:29:49.610Z,8.78
2019-05-11T02:32:16.280Z,9.00
2019-05-11T02:34:42.966Z,8.90
2019-05-11T02:37:09.713Z,8.77
2019-05-11T02:39:36.283Z,8.70
2019-05-11T02:42:03.147Z,8.73
2019-05-11T02:44:29.966Z,8.71
2019-05-11T02:46:56.694Z,8.70
2019-05-11T02:49:27.760Z,8.68
2019-05-11T02:51:52.244Z,8.64
2019-05-11T02:54:19.130Z,8.73
2019-05-11T02:56:45.797Z,8.64
2019-05-11T02:59:12.477Z,8.73
2019-05-11T03:01:39.159Z,8.57
2019-05-11T03:04:05.935Z,8.55
2019-05-11T03:06:32.702Z,8.47
2019-05-11T03:08:59.391Z,8.46
2019-05-11T03:11:25.977Z,8.48
2019-05-11T03:13:52.624Z,8.43
2019-05-11T03:16:19.300Z,8.39
2019-05-11T03:18:46.073Z,8.43
2019-05-11T03:21:12.650Z,8.43
2019-05-11T03:23:39.214Z,8.45
2019-05-11T03:26:06.286Z,8.44
2019-05-11T03:28:33.142Z,8.50
2019-05-11T03:31:02.123Z,8.55
2019-05-11T03:33:29.117Z,8.62
2019-05-11T03:35:55.894Z,8.62
2019-05-11T03:38:22.454Z,8.69
2019-05-11T03:40:49.436Z,8.76
2019-05-11T03:43:16.100Z,8.61
2019-05-11T03:45:43.089Z,8.69
2019-05-11T03:48:10.141Z,8.70
2019-05-11T03:50:36.988Z,8.73
2019-05-11T03:53:03.854Z,8.72
2019-05-11T03:55:30.636Z,8.73
2019-05-11T03:57:57.222Z,8.73
2019-05-11T04:00:23.985Z,8.80
2019-05-11T04:02:50.599Z,8.75
2019-05-11T04:05:17.384Z,8.76
2019-05-11T04:07:44.195Z,8.77
2019-05-11T04:10:10.890Z,8.81
2019-05-11T04:12:37.642Z,8.90
2019-05-11T04:15:04.905Z,8.92
2019-05-11T04:17:31.575Z,8.95
2019-05-11T04:19:58.260Z,8.97
2019-05-11T04:22:24.955Z,9.12
2019-05-11T04:24:51.948Z,9.10
2019-05-11T04:27:19.611Z,9.12
2019-05-11T04:29:46.736Z,9.17
2019-05-11T04:32:13.422Z,9.37
2019-05-11T04:34:40.143Z,9.32
2019-05-11T04:37:06.825Z,9.44
2019-05-11T04:39:33.631Z,9.40
2019-05-11T04:42:00.234Z,9.42
2019-05-11T04:44:26.912Z,9.58
2019-05-11T04:46:53.599Z,9.54
2019-05-11T04:49:20.285Z,9.60
2019-05-11T04:51:47.068Z,9.68
2019-05-11T04:54:13.738Z,9.67
2019-05-11T04:56:40.467Z,9.70
2019-05-11T04:59:07.196Z,9.74
2019-05-11T05:01:35.457Z,9.80
2019-05-11T05:04:13.294Z,9.79
2019-05-11T05:06:30.997Z,9.96
2019-05-11T05:08:58.265Z,9.90
2019-05-11T05:11:30.608Z,10.06
2019-05-11T05:13:54.638Z,10.18
2019-05-11T05:16:21.331Z,10.17
2019-05-11T05:18:47.999Z,10.21
2019-05-11T05:21:14.783Z,10.25
2019-05-11T05:23:41.554Z,10.38
2019-05-11T05:26:08.167Z,10.48
2019-05-11T05:28:34.927Z,10.42
2019-05-11T05:31:01.716Z,10.65
2019-05-11T05:33:28.394Z,10.90
2019-05-11T05:35:55.077Z,10.88
2019-05-11T05:38:21.654Z,10.97
2019-05-11T05:40:48.368Z,11.19
2019-05-11T05:43:26.020Z,11.36
2019-05-11T05:45:43.527Z,11.48
2019-05-11T05:48:10.224Z,11.63
2019-05-11T05:50:36.908Z,11.90
2019-05-11T05:53:03.740Z,11.83
2019-05-11T05:55:30.346Z,11.88
2019-05-11T05:57:57.199Z,12.01
2019-05-11T06:00:23.980Z,12.24
2019-05-11T06:02:50.813Z,12.25
2019-05-11T06:05:19.784Z,12.30
2019-05-11T06:07:47.272Z,12.21
2019-05-11T06:10:14.189Z,12.01
2019-05-11T06:12:40.890Z,11.74
2019-05-11T06:15:08.367Z,11.90
2019-05-11T06:17:34.966Z,11.88
2019-05-11T06:20:02.392Z,11.78
2019-05-11T06:22:30.889Z,11.79
2019-05-11T06:24:57.461Z,11.85
2019-05-11T06:27:24.148Z,11.97
2019-05-11T06:29:50.844Z,12.16
2019-05-11T06:32:17.527Z,12.33
2019-05-11T06:34:44.309Z,12.24
2019-05-11T06:37:10.987Z,12.34
2019-05-11T06:39:37.664Z,12.26
2019-05-11T06:42:04.474Z,12.33
2019-05-11T06:44:31.150Z,12.15
2019-05-11T06:46:58.211Z,12.33
2019-05-11T06:49:24.889Z,12.23
2019-05-11T06:51:51.480Z,12.24
2019-05-11T06:54:18.258Z,12.37
2019-05-11T06:56:44.855Z,12.40
2019-05-11T06:59:11.854Z,12.38
2019-05-11T07:01:38.577Z,12.52
2019-05-11T07:04:05.345Z,12.42
2019-05-11T07:06:33.123Z,12.35
2019-05-11T07:08:59.684Z,12.40
2019-05-11T07:11:26.337Z,12.44
2019-05-11T07:13:52.978Z,12.36
2019-05-11T07:16:19.734Z,12.56
2019-05-11T07:18:46.444Z,12.53
2019-05-11T07:21:13.110Z,12.51
2019-05-11T07:23:39.790Z,12.57
2019-05-11T07:26:06.579Z,12.74
2019-05-11T07:28:33.279Z,12.77
2019-05-11T07:31:00.008Z,12.83
2019-05-11T07:33:28.709Z,12.77
2019-05-11T07:35:55.269Z,12.80
2019-05-11T07:38:21.982Z,12.61
2019-05-11T07:40:48.774Z,12.59
2019-05-11T07:43:15.589Z,12.58
2019-05-11T07:45:42.253Z,12.38
2019-05-11T07:48:08.866Z,12.31
2019-05-11T07:50:35.432Z,12.34
2019-05-11T07:53:02.235Z,12.35
2019-05-11T07:55:28.799Z,12.34
2019-05-11T07:57:55.604Z,12.18
2019-05-11T08:00:22.367Z,12.18
2019-05-11T08:02:49.156Z,12.30
2019-05-11T08:05:17.998Z,12.35
2019-05-11T08:07:48.144Z,12.32
2019-05-11T08:10:18.563Z,12.26
2019-05-11T08:12:45.301Z,12.42
2019-05-11T08:15:13.801Z,12.60
2019-05-11T08:17:40.765Z,12.73
2019-05-11T08:20:08.536Z,12.86
2019-05-11T08:22:55.058Z,12.97
2019-05-11T08:25:21.731Z,13.07
2019-05-11T08:27:48.711Z,13.14
2019-05-11T08:30:15.985Z,13.23
2019-05-11T08:32:44.177Z,13.18
2019-05-11T08:35:11.290Z,13.17
2019-05-11T08:37:38.773Z,13.20
2019-05-11T08:40:28.836Z,13.30
2019-05-11T08:43:17.814Z,13.35
2019-05-11T08:45:44.130Z,13.45
2019-05-11T08:48:10.922Z,13.43
2019-05-11T08:50:38.251Z,13.33
2019-05-11T08:53:08.438Z,13.07
2019-05-11T08:55:34.997Z,13.14
2019-05-11T08:58:01.689Z,13.29
2019-05-11T09:00:28.595Z,13.15
2019-05-11T09:02:58.035Z,13.05
2019-05-11T09:05:24.042Z,13.17
2019-05-11T09:07:51.061Z,13.29
2019-05-11T09:10:18.635Z,12.90
2019-05-11T09:12:45.644Z,13.12
2019-05-11T09:15:12.602Z,13.02
2019-05-11T09:17:39.162Z,13.05
2019-05-11T09:20:08.720Z,12.69
2019-05-11T09:22:35.236Z,12.27
2019-05-11T09:25:02.045Z,12.45
2019-05-11T09:27:28.815Z,12.31
2019-05-11T09:29:55.514Z,12.24
2019-05-11T09:32:22.310Z,12.27
2019-05-11T09:34:48.879Z,12.25
2019-05-11T09:37:18.384Z,12.59
2019-05-11T09:39:47.728Z,12.72
2019-05-11T09:42:13.766Z,13.00
2019-05-11T09:44:40.460Z,13.20
2019-05-11T09:47:08.312Z,13.44
2019-05-11T09:49:47.163Z,13.55
2019-05-11T09:52:03.982Z,13.53
2019-05-11T09:54:30.762Z,13.52
2019-05-11T09:56:57.987Z,13.66
2019-05-11T09:59:28.015Z,13.31
2019-05-11T10:01:55.887Z,13.67
2019-05-11T10:04:28.808Z,14.01
2019-05-11T10:06:58.379Z,14.11
2019-05-11T10:09:24.885Z,13.80
2019-05-11T10:11:51.818Z,13.64
2019-05-11T10:14:18.886Z,13.71
2019-05-11T10:16:45.612Z,13.61
2019-05-11T10:19:12.394Z,14.08
2019-05-11T10:21:39.091Z,14.56
2019-05-11T10:24:08.323Z,14.87
2019-05-11T10:26:34.522Z,14.84
2019-05-11T10:29:01.283Z,14.64
2019-05-11T10:31:31.116Z,14.23
2019-05-11T10:33:58.112Z,14.01
2019-05-11T10:36:24.978Z,14.06
2019-05-11T10:38:51.787Z,13.97
2019-05-11T10:41:18.597Z,13.92
2019-05-11T10:43:45.372Z,13.79
2019-05-11T10:46:19.607Z,14.00
2019-05-11T10:48:40.525Z,14.04
2019-05-11T10:51:08.241Z,13.98
2019-05-11T10:53:35.353Z,13.97
2019-05-11T10:56:02.141Z,13.87
2019-05-11T10:58:28.836Z,13.42
2019-05-11T11:00:58.073Z,13.30
2019-05-11T11:03:24.385Z,12.97
2019-05-11T11:05:51.112Z,12.82
2019-05-11T11:08:18.516Z,12.78
2019-05-11T11:10:45.642Z,12.72
2019-05-11T11:13:12.412Z,12.48
2019-05-11T11:15:39.247Z,12.13
2019-05-11T11:18:08.394Z,12.08
2019-05-11T11:20:34.592Z,12.24
2019-05-11T11:23:01.310Z,12.29
2019-05-11T11:25:28.498Z,12.38
2019-05-11T11:27:57.708Z,12.11
2019-05-11T11:30:24.193Z,12.19
2019-05-11T11:32:50.860Z,12.21
2019-05-11T11:35:18.766Z,12.35
2019-05-11T11:37:47.727Z,12.29
2019-05-11T11:40:14.470Z,12.19
2019-05-11T11:42:41.413Z,12.18
2019-05-11T11:45:08.792Z,12.02
2019-05-11T11:47:35.580Z,11.87
2019-05-11T11:50:02.427Z,11.63
2019-05-11T11:52:28.983Z,11.49
2019-05-11T11:54:55.773Z,11.54
2019-05-11T11:57:22.566Z,11.70
2019-05-11T11:59:49.367Z,11.71
2019-05-11T12:02:16.052Z,11.61
2019-05-11T12:04:42.794Z,11.66
2019-05-11T12:07:09.474Z,11.65
2019-05-11T12:09:37.774Z,11.36
2019-05-11T12:12:04.708Z,11.28
2019-05-11T12:14:31.291Z,10.92
2019-05-11T12:17:07.482Z,10.83
2019-05-11T12:19:27.875Z,10.92
2019-05-11T12:21:54.917Z,10.83
2019-05-11T12:24:21.782Z,10.84
2019-05-11T12:26:48.710Z,10.91
2019-05-11T12:29:15.395Z,10.99
2019-05-11T12:31:42.184Z,10.93
2019-05-11T12:34:08.957Z,10.91
2019-05-11T12:36:35.611Z,10.92
2019-05-11T12:39:04.425Z,10.79
2019-05-11T12:41:31.325Z,10.92
2019-05-11T12:43:58.089Z,10.82
2019-05-11T12:46:24.864Z,10.75
2019-05-11T12:48:51.625Z,10.95
2019-05-11T12:51:18.763Z,11.12
2019-05-11T12:53:47.549Z,11.29
2019-05-11T12:56:14.087Z,11.34
2019-05-11T12:58:40.623Z,11.53
2019-05-11T13:01:08.976Z,11.78
2019-05-11T13:03:38.401Z,12.21
2019-05-11T13:06:04.598Z,11.89
2019-05-11T13:08:31.416Z,11.87
2019-05-11T13:10:58.512Z,11.97
2019-05-11T13:13:25.409Z,12.28
2019-05-11T13:15:52.079Z,12.61
2019-05-11T13:18:18.779Z,13.04
2019-05-11T13:20:45.420Z,13.37
2019-05-11T13:23:12.112Z,13.41
2019-05-11T13:25:39.034Z,13.43
2019-05-11T13:28:05.866Z,13.23
2019-05-11T13:30:32.525Z,12.82
2019-05-11T13:32:59.202Z,12.94
2019-05-11T13:35:28.303Z,13.38
2019-05-11T13:37:54.453Z,13.50
2019-05-11T13:40:21.140Z,14.12
2019-05-11T13:42:48.983Z,14.33
2019-05-11T13:45:17.739Z,14.69
2019-05-11T13:47:52.688Z,14.72
2019-05-11T13:50:13.621Z,14.31
2019-05-11T13:52:40.402Z,14.42
2019-05-11T13:55:07.860Z,14.03
2019-05-11T13:57:37.803Z,14.46
2019-05-11T14:02:54.638Z,13.98
2019-05-11T14:05:21.487Z,13.87
2019-05-11T14:07:48.394Z,13.76
2019-05-11T14:10:15.325Z,13.81
2019-05-11T14:12:42.513Z,13.77
2019-05-11T14:15:09.162Z,13.92
2019-05-11T14:17:37.861Z,14.10
2019-05-11T14:20:04.814Z,14.23
2019-05-11T14:22:31.497Z,14.36
2019-05-11T14:24:58.734Z,14.41
2019-05-11T14:27:25.334Z,14.53
2019-05-11T14:29:52.003Z,14.69
2019-05-11T14:32:18.762Z,14.86
2019-05-11T14:34:45.341Z,14.89
2019-05-11T14:37:12.142Z,14.61
2019-05-11T14:39:38.721Z,14.52
2019-05-11T14:42:07.534Z,14.70
2019-05-11T14:44:34.017Z,14.58
2019-05-11T14:47:00.570Z,14.67
2019-05-11T14:49:27.702Z,14.78
2019-05-11T14:52:14.167Z,15.13
2019-05-11T14:54:41.550Z,15.38
2019-05-11T14:57:08.331Z,15.64
2019-05-11T14:59:35.098Z,15.68
2019-05-11T15:02:11.532Z,15.72
2019-05-11T15:04:38.271Z,15.85
2019-05-11T15:07:04.932Z,16.16
2019-05-11T15:09:31.664Z,15.97
2019-05-11T15:11:58.329Z,15.53
2019-05-11T15:14:25.014Z,15.18
2019-05-11T15:16:51.675Z,15.47
2019-05-11T15:19:18.635Z,15.72
2019-05-11T15:21:47.621Z,15.89
2019-05-11T15:24:14.266Z,16.19
2019-05-11T15:26:40.930Z,16.08
2019-05-11T15:29:08.297Z,16.20
2019-05-11T15:31:35.177Z,16.17
2019-05-11T15:34:01.875Z,16.41
2019-05-11T15:36:28.829Z,16.42
2019-05-11T15:38:55.403Z,16.72
2019-05-11T15:41:21.974Z,17.21
2019-05-11T15:43:48.751Z,17.52
2019-05-11T15:46:19.561Z,17.84
2019-05-11T15:48:58.478Z,17.76
2019-05-11T15:51:13.328Z,17.48
2019-05-11T15:53:39.900Z,17.20
2019-05-11T15:56:08.560Z,17.02
2019-05-11T15:58:35.173Z,16.78
2019-05-11T16:01:01.994Z,16.19
2019-05-11T16:03:28.665Z,15.72
2019-05-11T16:05:55.332Z,15.75
2019-05-11T16:08:21.905Z,15.74
2019-05-11T16:10:49.010Z,15.36
2019-05-11T16:13:17.903Z,15.59
2019-05-11T16:15:44.514Z,15.55
2019-05-11T16:18:11.161Z,15.57
2019-05-11T16:20:37.839Z,15.38
2019-05-11T16:23:04.512Z,15.26
2019-05-11T16:25:31.333Z,15.22
2019-05-11T16:27:57.978Z,15.07
2019-05-11T16:30:25.054Z,15.17
2019-05-11T16:32:51.615Z,15.27
2019-05-11T16:35:18.528Z,15.28
2019-05-11T16:37:45.308Z,15.12
2019-05-11T16:40:12.344Z,14.64
2019-05-11T16:42:39.126Z,14.65
2019-05-11T16:45:08.513Z,14.60
2019-05-11T16:47:35.188Z,14.61
2019-05-11T16:50:01.955Z,14.97
2019-05-11T16:52:28.833Z,14.98
2019-05-11T16:54:55.397Z,15.18
2019-05-11T16:57:22.176Z,15.53
2019-05-11T16:59:48.852Z,15.46
2019-05-11T17:02:15.637Z,15.49
2019-05-11T17:04:42.259Z,15.28
2019-05-11T17:07:08.986Z,14.93
2019-05-11T17:09:37.806Z,15.00
2019-05-11T17:12:04.931Z,15.16
2019-05-11T17:14:31.619Z,15.40
2019-05-11T17:16:58.651Z,15.26
2019-05-11T17:19:41.851Z,15.29
2019-05-11T17:21:54.370Z,15.60
2019-05-11T17:24:20.954Z,15.55
2019-05-11T17:26:47.977Z,15.21
2019-05-11T17:29:14.687Z,15.23
2019-05-11T17:31:41.574Z,15.45
2019-05-11T17:34:09.036Z,15.58
2019-05-11T17:36:36.227Z,15.56
2019-05-11T17:39:06.358Z,15.54
2019-05-11T17:41:32.946Z,15.42
2019-05-11T17:43:59.512Z,14.98
2019-05-11T17:46:27.832Z,14.70
2019-05-11T17:48:54.725Z,14.34
2019-05-11T17:51:24.877Z,14.23
2019-05-11T17:53:49.989Z,13.96
2019-05-11T17:56:16.556Z,13.77
2019-05-11T17:58:43.143Z,13.75
2019-05-11T18:01:10.225Z,13.66
2019-05-11T18:03:38.457Z,13.59
2019-05-11T18:06:05.400Z,13.62
2019-05-11T18:08:31.969Z,13.48
2019-05-11T18:10:59.151Z,13.36
2019-05-11T18:13:28.124Z,13.39
2019-05-11T18:15:54.524Z,13.21
2019-05-11T18:18:24.028Z,13.09
2019-05-11T18:20:50.003Z,13.07
2019-05-11T18:23:17.584Z,12.80
2019-05-11T18:25:44.465Z,12.72
2019-05-11T18:28:14.146Z,12.64
2019-05-11T18:30:39.886Z,12.47
2019-05-11T18:33:08.295Z,12.27
2019-05-11T18:35:35.520Z,12.08
2019-05-11T18:38:02.296Z,12.01
2019-05-11T18:40:29.006Z,11.89
2019-05-11T18:42:57.867Z,11.82
2019-05-11T18:45:24.735Z,11.67
2019-05-11T18:47:51.300Z,11.47
2019-05-11T18:50:29.984Z,11.39
2019-05-11T18:52:49.025Z,11.20
2019-05-11T18:55:15.615Z,11.19
2019-05-11T18:57:42.693Z,11.00
2019-05-11T19:00:09.565Z,10.87
2019-05-11T19:02:38.410Z,10.97
2019-05-11T19:05:05.693Z,10.84
2019-05-11T19:07:32.567Z,10.75
2019-05-11T19:09:59.710Z,10.54
2019-05-11T19:12:27.890Z,10.43
2019-05-11T19:14:54.743Z,10.45
2019-05-11T19:17:23.640Z,10.46
2019-05-11T19:19:50.351Z,10.26
2019-05-11T19:22:18.313Z,10.10
2019-05-11T19:24:47.581Z,10.14
2019-05-11T19:27:14.500Z,9.96
2019-05-11T19:29:41.420Z,9.94
2019-05-11T19:32:11.144Z,9.75
2019-05-11T19:34:38.810Z,9.74
2019-05-11T19:37:05.713Z,9.78
2019-05-11T19:39:32.435Z,9.74
2019-05-11T19:41:59.041Z,9.60
2019-05-11T19:44:27.833Z,9.64
2019-05-11T19:46:54.212Z,9.44
2019-05-11T19:49:20.895Z,9.32
2019-05-11T19:51:48.660Z,9.29
2019-05-11T19:54:15.524Z,9.28
2019-05-11T19:56:42.109Z,9.28
2019-05-11T19:59:08.971Z,9.22
2019-05-11T20:01:35.742Z,9.14
2019-05-11T20:04:02.423Z,9.19
2019-05-11T20:06:29.059Z,9.13
2019-05-11T20:08:57.702Z,9.08
2019-05-11T20:11:24.310Z,8.93
2019-05-11T20:13:50.869Z,8.86
2019-05-11T20:16:18.737Z,8.85
2019-05-11T20:18:45.633Z,8.81
2019-05-11T20:21:19.253Z,8.74
2019-05-11T20:23:41.037Z,8.71
2019-05-11T20:26:08.878Z,8.67
2019-05-11T20:28:37.781Z,8.60
2019-05-11T20:31:04.399Z,8.68
2019-05-11T20:33:31.195Z,8.64
2019-05-11T20:35:58.229Z,8.53
2019-05-11T20:38:25.030Z,8.41
2019-05-11T20:40:51.604Z,8.39
2019-05-11T20:43:18.729Z,8.29
2019-05-11T20:45:45.395Z,8.25
2019-05-11T20:48:12.073Z,8.33
2019-05-11T20:50:38.637Z,8.22
2019-05-11T20:53:05.404Z,8.23
2019-05-11T20:55:32.162Z,8.22
2019-05-11T20:57:58.866Z,8.25
2019-05-11T21:00:27.781Z,8.18
2019-05-11T21:02:54.335Z,8.11
2019-05-11T21:05:21.023Z,8.11
2019-05-11T21:07:47.683Z,8.11
2019-05-11T21:10:14.439Z,8.14
2019-05-11T21:12:41.167Z,8.09
2019-05-11T21:15:08.670Z,8.13
2019-05-11T21:17:35.369Z,8.19
2019-05-11T21:20:02.291Z,8.08
2019-05-11T21:22:29.090Z,8.10
2019-05-11T21:24:58.078Z,8.06
2019-05-11T21:27:24.140Z,8.03
2019-05-11T21:29:50.716Z,7.97
2019-05-11T21:32:17.999Z,7.91
2019-05-11T21:34:44.871Z,7.86
2019-05-11T21:37:11.575Z,7.79
2019-05-11T21:39:38.283Z,7.76
2019-05-11T21:42:07.585Z,7.77
2019-05-11T21:44:34.070Z,7.76
2019-05-11T21:47:00.830Z,7.72
2019-05-11T21:49:27.472Z,7.66
2019-05-11T21:52:04.233Z,7.55
2019-05-11T21:54:22.828Z,7.49
2019-05-11T21:56:49.512Z,7.39
2019-05-11T21:59:18.262Z,7.42
2019-05-11T22:01:45.126Z,7.50
2019-05-11T22:04:11.932Z,7.40
2019-05-11T22:06:39.202Z,7.32
2019-05-11T22:09:08.233Z,7.31
2019-05-11T22:11:35.042Z,7.33
2019-05-11T22:14:01.936Z,7.22
2019-05-11T22:16:30.251Z,7.19
2019-05-11T22:18:57.968Z,7.17
2019-05-11T22:21:24.898Z,7.12
2019-05-11T22:23:51.775Z,7.27
2019-05-11T22:26:18.559Z,7.13
2019-05-11T22:28:47.632Z,7.12
2019-05-11T22:31:14.105Z,7.08
2019-05-11T22:33:40.791Z,7.02
2019-05-11T22:36:07.475Z,6.95
2019-05-11T22:38:34.049Z,6.95
2019-05-11T22:41:00.942Z,6.79
2019-05-11T22:43:28.545Z,6.65
2019-05-11T22:45:57.935Z,6.63
2019-05-11T22:48:24.304Z,6.76
2019-05-11T22:50:51.543Z,6.63
2019-05-11T22:53:18.834Z,6.57
2019-05-11T22:55:45.642Z,6.58
2019-05-11T22:58:12.342Z,6.47
2019-05-11T23:00:41.479Z,6.48
2019-05-11T23:03:10.976Z,6.60
2019-05-11T23:05:38.295Z,6.59
2019-05-11T23:08:07.531Z,6.64
2019-05-11T23:10:34.101Z,6.68
2019-05-11T23:13:01.355Z,6.69
2019-05-11T23:15:28.326Z,6.77
2019-05-11T23:17:55.147Z,6.82
2019-05-11T23:20:21.842Z,6.67
2019-05-11T23:22:57.814Z,6.64
2019-05-11T23:25:18.482Z,6.58
2019-05-11T23:27:45.404Z,6.51
2019-05-11T23:30:13.164Z,6.51
2019-05-11T23:32:39.923Z,6.49
2019-05-11T23:35:08.391Z,6.45
2019-05-11T23:37:35.395Z,6.46
2019-05-11T23:40:02.170Z,6.40
2019-05-11T23:42:30.832Z,6.26
2019-05-11T23:44:58.653Z,6.28
2019-05-11T23:47:25.478Z,6.31
2019-05-11T23:49:52.163Z,6.22
2019-05-11T23:52:18.848Z,6.25
2019-05-11T23:54:45.434Z,6.31
2019-05-11T23:57:12.113Z,6.22
2019-05-11T23:59:38.804Z,6.13
